createdAt,value
2023-02-24T00:02:03.012Z,64.93
2023-02-24T00:04:37.229Z,63.65
2023-02-24T00:07:08.655Z,63.65
2023-02-24T00:09:38.083Z,64.26
2023-02-24T00:12:09.259Z,65.27
2023-02-24T00:14:39.784Z,64.00
2023-02-24T00:17:10.271Z,63.13
2023-02-24T00:19:39.062Z,62.34
2023-02-24T00:22:09.708Z,63.22
2023-02-24T00:24:38.473Z,62.07
2023-02-24T00:27:11.420Z,61.93
2023-02-24T00:29:40.892Z,62.40
2023-02-24T00:32:13.446Z,62.25
2023-02-24T00:34:41.935Z,61.98
2023-02-24T00:37:11.208Z,62.54
2023-02-24T00:39:41.885Z,63.10
2023-02-24T00:42:12.348Z,64.52
2023-02-24T00:44:42.890Z,63.49
2023-02-24T00:47:14.131Z,64.08
2023-02-24T00:49:43.413Z,64.58
2023-02-24T00:52:13.654Z,64.98
2023-02-24T00:54:42.278Z,63.09
2023-02-24T00:57:10.672Z,64.43
2023-02-24T00:59:39.230Z,63.61
2023-02-24T01:02:08.029Z,63.35
2023-02-24T01:04:38.684Z,62.19
2023-02-24T01:07:11.036Z,61.97
2023-02-24T01:09:43.935Z,62.16
2023-02-24T01:12:33.452Z,61.46
2023-02-24T01:15:05.050Z,61.51
2023-02-24T01:17:33.422Z,61.03
2023-02-24T01:20:15.853Z,62.57
2023-02-24T01:22:45.009Z,62.26
2023-02-24T01:25:13.491Z,62.91
2023-02-24T01:27:42.622Z,61.12
2023-02-24T01:30:15.661Z,62.32
2023-02-24T01:32:44.734Z,61.14
2023-02-24T01:35:15.081Z,60.53
2023-02-24T01:37:45.061Z,61.55
2023-02-24T01:40:18.917Z,60.77
2023-02-24T01:42:50.664Z,59.43
2023-02-24T01:45:23.089Z,61.65
2023-02-24T01:47:52.716Z,61.11
2023-02-24T01:50:26.027Z,62.12
2023-02-24T01:52:58.241Z,61.14
2023-02-24T01:55:31.961Z,60.17
2023-02-24T01:58:02.987Z,61.84
2023-02-24T02:00:38.409Z,61.36
2023-02-24T02:03:12.552Z,60.52
2023-02-24T02:05:49.341Z,60.38
2023-02-24T02:08:19.825Z,60.84
2023-02-24T02:10:49.420Z,60.39
2023-02-24T02:13:21.757Z,59.40
2023-02-24T02:16:01.107Z,60.20
2023-02-24T02:18:38.676Z,60.44
2023-02-24T02:21:36.611Z,60.21
2023-02-24T02:24:19.752Z,59.16
2023-02-24T02:27:27.765Z,58.31
2023-02-24T02:30:25.163Z,57.78
2023-02-24T02:33:27.919Z,59.53
2023-02-24T02:36:04.336Z,59.71
2023-02-24T02:38:43.231Z,57.92
2023-02-24T02:41:20.148Z,57.79
2023-02-24T02:43:52.761Z,58.57
2023-02-24T02:46:34.982Z,59.19
2023-02-24T02:49:17.086Z,59.74
2023-02-24T02:51:53.414Z,59.20
2023-02-24T02:54:30.008Z,58.77
2023-02-24T02:57:03.727Z,59.45
2023-02-24T02:59:36.535Z,58.29
2023-02-24T03:02:15.149Z,58.31
2023-02-24T03:04:51.202Z,58.23
2023-02-24T03:07:24.483Z,59.36
2023-02-24T03:09:58.152Z,58.50
2023-02-24T03:12:30.853Z,58.64
2023-02-24T03:15:02.145Z,59.54
2023-02-24T03:17:37.202Z,58.65
2023-02-24T03:20:15.823Z,59.72
2023-02-24T03:22:50.353Z,58.50
2023-02-24T03:25:24.317Z,57.75
2023-02-24T03:27:57.055Z,57.11
2023-02-24T03:30:33.281Z,57.46
2023-02-24T03:33:06.428Z,56.58
2023-02-24T03:35:40.234Z,55.90
2023-02-24T03:38:11.285Z,54.84
2023-02-24T03:40:40.340Z,55.32
2023-02-24T03:43:17.020Z,54.15
2023-02-24T03:45:46.719Z,52.76
2023-02-24T03:48:15.729Z,53.25
2023-02-24T03:50:46.793Z,51.90
2023-02-24T03:53:43.047Z,51.09
2023-02-24T03:56:26.702Z,50.84
2023-02-24T03:59:12.877Z,51.25
2023-02-24T04:01:51.908Z,49.82
2023-02-24T04:04:31.755Z,50.46
2023-02-24T04:07:15.312Z,50.80
2023-02-24T04:09:50.371Z,51.14
2023-02-24T04:12:22.960Z,51.15
2023-02-24T04:14:59.474Z,50.56
2023-02-24T04:17:32.245Z,50.24
2023-02-24T04:20:09.201Z,50.71
2023-02-24T04:22:41.248Z,53.16
2023-02-24T04:25:13.941Z,52.14
2023-02-24T04:27:45.249Z,51.81
2023-02-24T04:30:18.234Z,51.75
2023-02-24T04:32:46.675Z,52.89
2023-02-24T04:35:17.977Z,52.40
2023-02-24T04:37:51.008Z,54.77
2023-02-24T04:40:23.204Z,53.47
2023-02-24T04:42:53.192Z,51.71
2023-02-24T04:45:22.772Z,52.87
2023-02-24T04:47:56.358Z,52.36
2023-02-24T04:50:26.722Z,52.40
2023-02-24T04:52:56.631Z,52.58
2023-02-24T04:55:29.458Z,51.88
2023-02-24T04:57:59.158Z,52.11
2023-02-24T05:00:35.278Z,51.40
2023-02-24T05:03:06.132Z,50.47
2023-02-24T05:05:36.764Z,50.67
2023-02-24T05:08:07.465Z,50.31
2023-02-24T05:10:40.301Z,52.22
2023-02-24T05:13:12.488Z,52.41
2023-02-24T05:15:42.648Z,51.19
2023-02-24T05:18:14.934Z,51.64
2023-02-24T05:21:02.229Z,52.21
2023-02-24T05:23:33.353Z,53.05
2023-02-24T05:26:08.555Z,53.09
2023-02-24T05:28:38.161Z,52.85
2023-02-24T05:31:08.576Z,52.10
2023-02-24T05:33:38.262Z,52.54
2023-02-24T05:36:08.786Z,51.44
2023-02-24T05:38:38.326Z,52.00
2023-02-24T05:41:14.992Z,51.45
2023-02-24T05:43:44.705Z,51.25
2023-02-24T05:46:13.517Z,50.70
2023-02-24T05:48:41.874Z,50.98
2023-02-24T05:51:12.097Z,49.96
2023-02-24T05:53:42.513Z,51.21
2023-02-24T05:56:12.618Z,51.36
2023-02-24T05:58:40.757Z,50.70
2023-02-24T06:01:16.357Z,50.47
2023-02-24T06:03:47.944Z,51.04
2023-02-24T06:06:16.434Z,49.87
2023-02-24T06:08:49.935Z,50.26
2023-02-24T06:11:21.422Z,50.91
2023-02-24T06:13:49.813Z,49.75
2023-02-24T06:16:18.965Z,49.37
2023-02-24T06:18:50.951Z,50.28
2023-02-24T06:21:19.477Z,49.74
2023-02-24T06:23:51.026Z,50.02
2023-02-24T06:26:21.578Z,50.16
2023-02-24T06:28:54.068Z,49.54
2023-02-24T06:31:22.571Z,49.59
2023-02-24T06:33:53.389Z,49.56
2023-02-24T06:36:22.086Z,50.44
2023-02-24T06:38:52.507Z,49.93
2023-02-24T06:41:21.884Z,49.13
2023-02-24T06:43:50.458Z,49.45
2023-02-24T06:46:18.320Z,49.67
2023-02-24T06:48:48.122Z,48.93
2023-02-24T06:51:17.022Z,49.45
2023-02-24T06:53:45.476Z,49.90
2023-02-24T06:56:15.803Z,48.82
2023-02-24T06:58:46.680Z,49.11
2023-02-24T07:01:15.888Z,50.21
2023-02-24T07:04:00.244Z,49.31
2023-02-24T07:06:29.438Z,49.39
2023-02-24T07:08:59.359Z,48.77
2023-02-24T07:11:28.978Z,49.06
2023-02-24T07:13:59.432Z,48.47
2023-02-24T07:16:29.251Z,48.72
2023-02-24T07:18:58.478Z,49.04
2023-02-24T07:21:30.126Z,49.38
2023-02-24T07:23:59.428Z,48.36
2023-02-24T07:26:30.340Z,49.04
2023-02-24T07:28:59.865Z,48.72
2023-02-24T07:31:27.835Z,48.91
2023-02-24T07:33:57.559Z,49.14
2023-02-24T07:36:29.973Z,48.75
2023-02-24T07:39:01.562Z,48.84
2023-02-24T07:41:31.299Z,48.02
2023-02-24T07:44:03.166Z,48.27
2023-02-24T07:46:32.369Z,47.83
2023-02-24T07:49:00.206Z,48.09
2023-02-24T07:51:29.582Z,48.19
2023-02-24T07:53:59.838Z,47.53
2023-02-24T07:56:29.271Z,48.04
2023-02-24T07:59:02.579Z,47.94
2023-02-24T08:01:38.742Z,47.94
2023-02-24T08:04:09.045Z,47.83
2023-02-24T08:06:39.271Z,49.19
2023-02-24T08:09:17.392Z,48.00
2023-02-24T08:11:47.079Z,47.60
2023-02-24T08:14:16.924Z,47.95
2023-02-24T08:16:46.194Z,48.61
2023-02-24T08:19:20.154Z,47.96
2023-02-24T08:21:50.483Z,47.32
2023-02-24T08:24:20.750Z,46.95
2023-02-24T08:27:03.952Z,47.82
2023-02-24T08:29:40.091Z,47.51
2023-02-24T08:32:09.471Z,46.98
2023-02-24T08:34:44.291Z,47.57
2023-02-24T08:37:15.639Z,47.55
2023-02-24T08:39:44.156Z,48.76
2023-02-24T08:42:14.444Z,49.52
2023-02-24T08:44:46.700Z,49.41
2023-02-24T08:47:21.391Z,50.31
2023-02-24T08:49:49.789Z,51.96
2023-02-24T08:52:21.545Z,54.53
2023-02-24T08:54:50.877Z,53.48
2023-02-24T08:57:30.792Z,55.06
2023-02-24T09:00:06.806Z,55.49
2023-02-24T09:02:41.082Z,54.36
2023-02-24T09:05:14.357Z,56.56
2023-02-24T09:07:43.598Z,57.69
2023-02-24T09:10:21.364Z,58.22
2023-02-24T09:12:50.236Z,57.23
2023-02-24T09:15:25.672Z,57.22
2023-02-24T09:18:07.623Z,58.16
2023-02-24T09:20:53.515Z,57.80
2023-02-24T09:23:30.288Z,58.61
2023-02-24T09:25:58.913Z,59.15
2023-02-24T09:28:33.000Z,60.39
2023-02-24T09:31:05.195Z,60.33
2023-02-24T09:33:39.425Z,60.18
2023-02-24T09:36:13.198Z,60.11
2023-02-24T09:39:01.263Z,61.61
2023-02-24T09:41:34.456Z,61.13
2023-02-24T09:44:07.712Z,60.23
2023-02-24T09:46:54.271Z,61.28
2023-02-24T09:49:39.828Z,61.93
2023-02-24T09:52:17.341Z,60.96
2023-02-24T09:55:20.472Z,61.17
2023-02-24T09:58:08.315Z,61.00
2023-02-24T10:00:45.447Z,63.04
2023-02-24T10:03:30.171Z,62.82
2023-02-24T10:06:12.244Z,62.59
2023-02-24T10:08:46.584Z,62.05
2023-02-24T10:11:16.019Z,63.50
2023-02-24T10:13:53.103Z,64.08
2023-02-24T10:16:25.324Z,63.86
2023-02-24T10:19:11.760Z,64.47
2023-02-24T10:21:49.788Z,65.85
2023-02-24T10:24:29.332Z,67.30
2023-02-24T10:27:08.497Z,68.94
2023-02-24T10:29:55.468Z,68.45
2023-02-24T10:32:33.892Z,68.82
2023-02-24T10:35:03.780Z,68.39
2023-02-24T10:37:31.498Z,69.04
2023-02-24T10:40:09.393Z,67.20
2023-02-24T10:42:44.460Z,67.78
2023-02-24T10:45:19.409Z,66.04
2023-02-24T10:47:56.652Z,66.13
2023-02-24T10:50:32.106Z,65.72
2023-02-24T10:53:34.418Z,66.41
2023-02-24T10:56:23.760Z,66.88
2023-02-24T10:59:16.475Z,66.28
2023-02-24T11:01:55.085Z,66.99
2023-02-24T11:04:53.948Z,67.30
2023-02-24T11:07:33.690Z,67.11
2023-02-24T11:10:12.100Z,65.23
2023-02-24T11:13:09.370Z,66.33
2023-02-24T11:16:00.762Z,65.09
2023-02-24T11:18:30.359Z,65.12
2023-02-24T11:21:00.985Z,65.55
2023-02-24T11:23:34.897Z,65.28
2023-02-24T11:26:05.246Z,65.04
2023-02-24T11:29:00.643Z,64.67
2023-02-24T11:31:46.123Z,64.33
2023-02-24T11:34:24.375Z,64.65
2023-02-24T11:36:59.144Z,64.48
2023-02-24T11:39:50.447Z,66.38
2023-02-24T11:42:27.023Z,65.92
2023-02-24T11:45:00.371Z,66.55
2023-02-24T11:47:33.027Z,66.39
2023-02-24T11:50:24.712Z,66.85
2023-02-24T11:52:55.954Z,65.08
2023-02-24T11:55:34.947Z,65.91
2023-02-24T11:58:06.661Z,67.63
2023-02-24T12:00:38.316Z,67.80
2023-02-24T12:03:15.436Z,66.27
2023-02-24T12:05:49.848Z,67.28
2023-02-24T12:08:27.074Z,68.96
2023-02-24T12:11:03.785Z,67.29
2023-02-24T12:13:42.826Z,68.06
2023-02-24T12:16:16.849Z,67.34
2023-02-24T12:18:51.495Z,67.82
2023-02-24T12:21:25.156Z,66.92
2023-02-24T12:23:54.652Z,70.03
2023-02-24T12:26:30.877Z,69.60
2023-02-24T12:29:21.041Z,68.75
2023-02-24T12:31:57.402Z,69.87
2023-02-24T12:34:38.871Z,70.70
2023-02-24T12:37:32.415Z,70.24
2023-02-24T12:40:17.270Z,70.02
2023-02-24T12:42:57.435Z,71.06
2023-02-24T12:45:39.319Z,70.84
2023-02-24T12:48:19.107Z,72.89
2023-02-24T12:50:54.660Z,73.63
2023-02-24T12:53:24.779Z,75.29
2023-02-24T12:56:07.797Z,74.87
2023-02-24T12:58:39.861Z,72.65
2023-02-24T13:01:17.648Z,74.64
2023-02-24T13:04:01.101Z,73.43
2023-02-24T13:06:42.739Z,73.72
2023-02-24T13:09:22.715Z,73.26
2023-02-24T13:11:55.791Z,74.10
2023-02-24T13:14:31.881Z,73.25
2023-02-24T13:17:20.089Z,73.09
2023-02-24T13:19:49.403Z,74.28
2023-02-24T13:22:30.217Z,73.31
2023-02-24T13:25:02.816Z,72.42
2023-02-24T13:27:34.859Z,73.91
2023-02-24T13:30:24.635Z,73.16
2023-02-24T13:33:02.107Z,71.71
2023-02-24T13:35:33.847Z,71.47
2023-02-24T13:38:24.723Z,71.02
2023-02-24T13:40:53.339Z,69.88
2023-02-24T13:43:27.962Z,70.51
2023-02-24T13:46:00.522Z,72.53
2023-02-24T13:49:01.218Z,70.38
2023-02-24T13:51:54.149Z,71.36
2023-02-24T13:54:40.357Z,71.89
2023-02-24T13:57:38.555Z,69.12
2023-02-24T14:00:13.038Z,70.57
2023-02-24T14:02:44.640Z,71.31
2023-02-24T14:05:20.657Z,70.26
2023-02-24T14:07:51.402Z,70.17
2023-02-24T14:10:21.829Z,68.83
2023-02-24T14:12:51.409Z,69.10
2023-02-24T14:15:22.240Z,69.51
2023-02-24T14:17:58.469Z,67.99
2023-02-24T14:20:28.529Z,68.29
2023-02-24T14:22:59.064Z,68.74
2023-02-24T14:25:29.999Z,67.83
2023-02-24T14:28:01.743Z,68.18
2023-02-24T14:30:34.042Z,68.71
2023-02-24T14:33:04.873Z,68.49
2023-02-24T14:35:35.978Z,68.33
2023-02-24T14:38:05.045Z,67.30
2023-02-24T14:40:33.477Z,67.02
2023-02-24T14:43:03.793Z,67.80
2023-02-24T14:45:31.766Z,69.56
2023-02-24T14:47:59.676Z,68.84
2023-02-24T14:50:34.127Z,67.92
2023-02-24T14:53:06.600Z,71.71
2023-02-24T14:55:38.143Z,69.46
2023-02-24T14:58:14.936Z,69.94
2023-02-24T15:00:49.466Z,67.01
2023-02-24T15:03:24.134Z,65.15
2023-02-24T15:05:56.909Z,65.24
2023-02-24T15:08:33.344Z,65.80
2023-02-24T15:11:01.771Z,66.32
2023-02-24T15:13:37.666Z,65.57
2023-02-24T15:16:12.557Z,65.51
2023-02-24T15:18:41.327Z,65.36
2023-02-24T15:21:22.450Z,66.52
2023-02-24T15:23:50.763Z,67.55
2023-02-24T15:26:27.256Z,67.08
2023-02-24T15:29:00.819Z,68.20
2023-02-24T15:31:29.890Z,68.68
2023-02-24T15:34:00.306Z,70.07
2023-02-24T15:36:33.280Z,69.02
2023-02-24T15:39:04.515Z,67.65
2023-02-24T15:41:42.960Z,68.26
2023-02-24T15:44:25.785Z,68.73
2023-02-24T15:46:53.703Z,68.36
2023-02-24T15:49:21.640Z,68.93
2023-02-24T15:51:53.173Z,70.27
2023-02-24T15:54:30.849Z,69.54
2023-02-24T15:57:00.435Z,69.00
2023-02-24T15:59:31.213Z,69.81
2023-02-24T16:01:59.295Z,69.57
2023-02-24T16:04:27.840Z,70.87
2023-02-24T16:06:58.849Z,70.04
2023-02-24T16:09:33.524Z,69.68
2023-02-24T16:12:03.256Z,70.97
2023-02-24T16:14:31.118Z,69.28
2023-02-24T16:16:59.965Z,69.80
2023-02-24T16:19:27.847Z,71.21
2023-02-24T16:21:57.068Z,69.33
2023-02-24T16:24:24.852Z,70.22
2023-02-24T16:26:52.705Z,71.22
2023-02-24T16:29:20.582Z,70.51
2023-02-24T16:31:48.615Z,70.42
2023-02-24T16:34:16.970Z,70.53
2023-02-24T16:36:45.159Z,69.64
2023-02-24T16:39:15.067Z,68.52
2023-02-24T16:41:42.963Z,68.28
2023-02-24T16:44:11.347Z,70.14
2023-02-24T16:46:41.379Z,70.53
2023-02-24T16:49:14.475Z,69.21
2023-02-24T16:51:42.282Z,69.61
2023-02-24T16:54:10.491Z,68.17
2023-02-24T16:56:39.879Z,70.32
2023-02-24T16:59:07.865Z,70.68
2023-02-24T17:01:37.386Z,68.02
2023-02-24T17:04:09.862Z,67.78
2023-02-24T17:06:37.817Z,67.35
2023-02-24T17:09:05.812Z,66.26
2023-02-24T17:11:34.009Z,67.63
2023-02-24T17:14:03.202Z,67.98
2023-02-24T17:16:31.436Z,67.11
2023-02-24T17:18:59.461Z,68.20
2023-02-24T17:21:27.734Z,67.28
2023-02-24T17:23:55.591Z,67.73
2023-02-24T17:26:23.956Z,68.35
2023-02-24T17:28:51.973Z,69.40
2023-02-24T17:31:21.365Z,70.32
2023-02-24T17:33:49.413Z,70.34
2023-02-24T17:36:17.196Z,70.61
2023-02-24T17:38:45.042Z,70.50
2023-02-24T17:41:12.973Z,71.28
2023-02-24T17:43:40.920Z,71.22
2023-02-24T17:46:08.777Z,70.88
2023-02-24T17:48:38.035Z,72.78
2023-02-24T17:51:06.161Z,72.41
2023-02-24T17:53:33.974Z,75.45
2023-02-24T17:56:03.537Z,77.43
2023-02-24T17:58:31.834Z,75.47
2023-02-24T18:01:19.293Z,76.39
2023-02-24T18:03:48.506Z,74.09
2023-02-24T18:06:16.507Z,75.46
2023-02-24T18:08:44.357Z,77.35
2023-02-24T18:11:16.959Z,76.94
2023-02-24T18:13:45.142Z,76.09
2023-02-24T18:16:15.253Z,78.20
2023-02-24T18:18:43.195Z,77.17
2023-02-24T18:22:12.371Z,77.82
2023-02-24T18:24:41.595Z,76.99
2023-02-24T18:27:09.579Z,76.05
2023-02-24T18:29:37.555Z,75.38
2023-02-24T18:32:13.094Z,76.24
2023-02-24T18:34:43.148Z,73.50
2023-02-24T18:37:10.966Z,75.92
2023-02-24T18:39:39.332Z,78.00
2023-02-24T18:42:08.554Z,78.20
2023-02-24T18:44:36.600Z,76.53
2023-02-24T18:47:09.263Z,74.86
2023-02-24T18:49:37.470Z,76.29
2023-02-24T18:52:07.354Z,76.90
2023-02-24T18:54:35.601Z,75.66
2023-02-24T18:57:03.670Z,75.48
2023-02-24T18:59:33.251Z,76.76
2023-02-24T19:02:01.315Z,74.40
2023-02-24T19:04:29.205Z,73.57
2023-02-24T19:06:57.179Z,71.32
2023-02-24T19:09:25.255Z,73.54
2023-02-24T19:11:54.487Z,74.13
2023-02-24T19:14:23.409Z,71.63
2023-02-24T19:16:53.781Z,72.38
2023-02-24T19:19:22.845Z,72.78
2023-02-24T19:21:52.096Z,71.10
2023-02-24T19:24:20.133Z,74.86
2023-02-24T19:26:48.454Z,71.56
2023-02-24T19:29:17.503Z,71.08
2023-02-24T19:31:48.335Z,72.34
2023-02-24T19:34:20.605Z,75.31
2023-02-24T19:36:48.654Z,74.56
2023-02-24T19:39:18.418Z,73.42
2023-02-24T19:41:49.468Z,74.52
2023-02-24T19:44:17.838Z,74.35
2023-02-24T19:46:45.841Z,71.82
2023-02-24T19:49:13.633Z,72.82
2023-02-24T19:51:43.551Z,70.78
2023-02-24T19:54:13.735Z,69.85
2023-02-24T19:56:41.564Z,72.69
2023-02-24T19:59:09.793Z,73.91
2023-02-24T20:01:37.728Z,74.18
2023-02-24T20:04:06.049Z,72.92
2023-02-24T20:06:36.626Z,73.65
2023-02-24T20:09:08.386Z,76.67
2023-02-24T20:11:41.243Z,74.43
2023-02-24T20:14:12.035Z,74.36
2023-02-24T20:16:40.954Z,73.36
2023-02-24T20:19:11.437Z,70.72
2023-02-24T20:21:40.709Z,71.08
2023-02-24T20:24:13.694Z,73.59
2023-02-24T20:27:06.665Z,73.08
2023-02-24T20:29:41.946Z,71.38
2023-02-24T20:32:10.373Z,71.06
2023-02-24T20:34:39.648Z,70.09
2023-02-24T20:37:08.353Z,70.08
2023-02-24T20:39:42.728Z,69.40
2023-02-24T20:42:13.764Z,69.68
2023-02-24T20:44:43.278Z,70.44
2023-02-24T20:47:11.860Z,69.26
2023-02-24T20:49:41.526Z,68.22
2023-02-24T20:52:10.467Z,69.50
2023-02-24T20:54:40.691Z,69.08
2023-02-24T20:57:09.825Z,69.58
2023-02-24T20:59:41.610Z,68.51
2023-02-24T21:02:13.431Z,69.04
2023-02-24T21:04:42.225Z,69.01
2023-02-24T21:07:11.086Z,67.30
2023-02-24T21:09:42.296Z,67.29
2023-02-24T21:12:10.745Z,67.69
2023-02-24T21:14:39.582Z,67.59
2023-02-24T21:17:08.386Z,67.00
2023-02-24T21:19:38.602Z,65.95
2023-02-24T21:22:07.951Z,66.59
2023-02-24T21:24:37.113Z,66.97
2023-02-24T21:27:08.343Z,67.23
2023-02-24T21:29:39.746Z,72.08
2023-02-24T21:32:08.485Z,70.38
2023-02-24T21:34:38.198Z,72.28
2023-02-24T21:37:07.598Z,73.47
2023-02-24T21:39:36.130Z,72.12
2023-02-24T21:42:05.023Z,69.66
2023-02-24T21:44:36.109Z,70.42
2023-02-24T21:47:05.000Z,74.08
2023-02-24T21:49:33.526Z,71.83
2023-02-24T21:52:02.646Z,68.34
2023-02-24T21:54:36.508Z,70.96
2023-02-24T21:57:06.550Z,72.65
2023-02-24T21:59:37.394Z,72.95
2023-02-24T22:02:07.080Z,71.13
2023-02-24T22:04:36.552Z,70.20
2023-02-24T22:07:05.278Z,73.85
2023-02-24T22:09:34.172Z,72.44
2023-02-24T22:12:02.982Z,69.99
2023-02-24T22:14:33.590Z,72.49
2023-02-24T22:17:04.228Z,69.24
2023-02-24T22:19:36.114Z,69.42
2023-02-24T22:22:05.316Z,69.84
2023-02-24T22:24:34.159Z,70.48
2023-02-24T22:27:03.054Z,68.99
2023-02-24T22:29:31.983Z,69.47
2023-02-24T22:32:00.662Z,70.42
2023-02-24T22:34:30.980Z,67.70
2023-02-24T22:36:59.654Z,71.80
2023-02-24T22:39:29.066Z,70.18
2023-02-24T22:41:59.025Z,67.91
2023-02-24T22:44:35.155Z,68.82
2023-02-24T22:47:11.344Z,68.01
2023-02-24T22:49:41.837Z,67.72
2023-02-24T22:52:11.850Z,68.28
2023-02-24T22:54:44.041Z,69.29
2023-02-24T22:57:18.157Z,67.90
2023-02-24T22:59:53.015Z,67.89
2023-02-24T23:02:21.126Z,69.23
2023-02-24T23:04:53.807Z,69.66
2023-02-24T23:07:22.487Z,67.50
2023-02-24T23:09:53.088Z,68.84
2023-02-24T23:12:22.407Z,67.84
2023-02-24T23:14:50.670Z,69.36
2023-02-24T23:17:18.591Z,67.89
2023-02-24T23:19:46.408Z,70.01
2023-02-24T23:22:16.233Z,66.68
2023-02-24T23:24:44.648Z,66.53
2023-02-24T23:27:12.487Z,67.90
2023-02-24T23:29:40.935Z,71.14
2023-02-24T23:32:08.924Z,69.97
2023-02-24T23:34:36.907Z,68.81
2023-02-24T23:37:07.369Z,68.52
2023-02-24T23:39:36.614Z,66.75
2023-02-24T23:42:04.831Z,66.25
2023-02-24T23:44:32.702Z,67.34
2023-02-24T23:47:01.197Z,66.78
2023-02-24T23:49:42.407Z,66.76
2023-02-24T23:52:14.107Z,67.54
2023-02-24T23:54:43.504Z,68.21
2023-02-24T23:57:11.487Z,67.76
2023-02-24T23:59:39.567Z,69.63
